createdAt,value
2022-12-15T00:00:41.625Z,-5.14
2022-12-15T00:07:21.225Z,-4.87
2022-12-15T00:10:35.675Z,-4.95
2022-12-15T00:13:57.298Z,-5.17
2022-12-15T00:17:11.339Z,-5.23
2022-12-15T00:20:30.012Z,-5.13
2022-12-15T00:23:45.847Z,-5.01
2022-12-15T00:27:03.427Z,-4.93
2022-12-15T00:30:17.732Z,-5.16
2022-12-15T00:33:32.313Z,-5.34
2022-12-15T00:36:46.758Z,-5.42
2022-12-15T00:39:43.231Z,-5.25
2022-12-15T00:48:46.690Z,-5.18
2022-12-15T00:51:12.250Z,-5.25
2022-12-15T00:54:50.062Z,-5.17
2022-12-15T01:02:12.888Z,-5.00
2022-12-15T01:05:34.689Z,-5.10
2022-12-15T01:08:57.982Z,-5.14
2022-12-15T01:12:15.040Z,-5.16
2022-12-15T01:15:36.470Z,-5.25
2022-12-15T01:18:57.877Z,-5.17
2022-12-15T01:25:02.457Z,-4.76
2022-12-15T01:28:05.240Z,-4.66
2022-12-15T01:30:59.043Z,-4.52
2022-12-15T01:34:04.293Z,-4.52
2022-12-15T01:36:58.414Z,-4.97
2022-12-15T01:40:16.395Z,-4.92
2022-12-15T01:43:13.639Z,-4.85
2022-12-15T01:49:35.994Z,-4.79
2022-12-15T01:52:47.178Z,-4.75
2022-12-15T01:55:45.874Z,-4.70
2022-12-15T01:59:02.428Z,-4.62
2022-12-15T02:01:57.515Z,-4.78
2022-12-15T02:05:01.122Z,-4.73
2022-12-15T02:07:55.469Z,-4.82
2022-12-15T02:14:54.900Z,-4.94
2022-12-15T02:18:18.024Z,-5.08
2022-12-15T02:21:38.390Z,-5.10
2022-12-15T02:28:38.758Z,-5.07
2022-12-15T02:32:19.622Z,-5.23
2022-12-15T02:35:55.389Z,-5.11
2022-12-15T02:38:58.475Z,-5.11
2022-12-15T02:41:55.353Z,-5.13
2022-12-15T02:45:23.353Z,-5.30
2022-12-15T02:49:12.756Z,-5.07
2022-12-15T02:52:26.739Z,-5.02
2022-12-15T02:55:57.393Z,-5.36
2022-12-15T02:59:25.121Z,-5.80
2022-12-15T03:02:17.064Z,-5.93
2022-12-15T03:05:12.098Z,-6.15
2022-12-15T03:08:10.915Z,-6.10
2022-12-15T03:11:12.031Z,-6.12
2022-12-15T03:14:14.268Z,-5.94
2022-12-15T03:17:21.300Z,-5.97
2022-12-15T03:20:28.058Z,-5.98
2022-12-15T03:26:54.382Z,-5.89
2022-12-15T03:29:48.326Z,-5.96
2022-12-15T03:32:41.608Z,-6.03
2022-12-15T03:35:47.619Z,-6.20
2022-12-15T03:38:41.062Z,-6.33
2022-12-15T03:44:55.716Z,-6.57
2022-12-15T03:48:00.379Z,-6.53
2022-12-15T03:51:11.538Z,-6.79
2022-12-15T03:54:14.531Z,-6.55
2022-12-15T03:57:08.111Z,-6.40
2022-12-15T04:00:13.595Z,-6.62
2022-12-15T04:03:04.589Z,-6.81
2022-12-15T04:05:52.950Z,-6.82
2022-12-15T04:08:41.119Z,-6.76
2022-12-15T04:11:35.437Z,-6.79
2022-12-15T04:14:23.575Z,-6.59
2022-12-15T04:17:13.226Z,-6.52
2022-12-15T04:20:13.112Z,-6.54
2022-12-15T04:23:05.518Z,-6.62
2022-12-15T04:26:14.894Z,-6.49
2022-12-15T04:29:28.700Z,-6.36
2022-12-15T04:32:42.452Z,-6.23
2022-12-15T04:35:55.827Z,-6.16
2022-12-15T04:39:08.009Z,-6.04
2022-12-15T04:42:22.792Z,-5.92
2022-12-15T04:45:39.473Z,-5.79
2022-12-15T04:48:46.405Z,-5.67
2022-12-15T04:52:05.191Z,-5.65
2022-12-15T04:55:14.861Z,-5.17
2022-12-15T04:58:35.918Z,-4.98
2022-12-15T05:01:42.641Z,-4.91
2022-12-15T05:04:49.663Z,-4.82
2022-12-15T05:08:00.848Z,-4.66
2022-12-15T05:11:12.765Z,-4.62
2022-12-15T05:14:25.402Z,-4.55
2022-12-15T05:17:41.663Z,-4.55
2022-12-15T05:21:07.687Z,-4.45
2022-12-15T05:24:18.258Z,-4.56
2022-12-15T05:27:30.339Z,-4.54
2022-12-15T05:30:37.477Z,-4.41
2022-12-15T05:33:30.469Z,-4.36
2022-12-15T05:36:31.021Z,-4.24
2022-12-15T05:39:32.990Z,-4.25
2022-12-15T05:42:21.852Z,-4.26
2022-12-15T05:45:29.373Z,-4.30
2022-12-15T05:48:20.891Z,-4.19
2022-12-15T05:51:32.084Z,-3.96
2022-12-15T05:54:36.390Z,-4.14
2022-12-15T05:57:35.606Z,-4.07
2022-12-15T06:03:45.063Z,-4.19
2022-12-15T06:07:14.037Z,-4.09
2022-12-15T06:10:20.519Z,-3.84
2022-12-15T06:13:35.316Z,-3.85
2022-12-15T06:19:34.035Z,-3.85
2022-12-15T06:22:28.170Z,-3.53
2022-12-15T06:25:29.273Z,-3.64
2022-12-15T06:28:46.870Z,-3.94
2022-12-15T06:35:01.827Z,-4.17
2022-12-15T06:38:09.356Z,-4.13
2022-12-15T06:41:43.581Z,-4.28
2022-12-15T06:44:31.760Z,-4.31
2022-12-15T06:47:24.715Z,-4.18
2022-12-15T06:50:12.806Z,-4.28
2022-12-15T06:53:06.228Z,-4.29
2022-12-15T06:55:59.976Z,-4.39
2022-12-15T06:58:51.747Z,-4.27
2022-12-15T07:04:22.937Z,-3.76
2022-12-15T07:07:14.494Z,-3.71
2022-12-15T07:10:04.105Z,-3.82
2022-12-15T07:15:46.984Z,-4.15
2022-12-15T07:18:35.981Z,-3.89
2022-12-15T07:21:26.879Z,-4.05
2022-12-15T07:24:15.974Z,-3.91
2022-12-15T07:27:06.863Z,-4.02
2022-12-15T07:29:55.194Z,-4.16
2022-12-15T07:32:50.625Z,-3.90
2022-12-15T07:35:48.851Z,-3.65
2022-12-15T07:38:37.355Z,-3.67
2022-12-15T07:41:28.188Z,-3.52
2022-12-15T07:44:19.193Z,-3.97
2022-12-15T07:47:13.000Z,-3.79
2022-12-15T07:50:08.633Z,-3.92
2022-12-15T07:54:04.484Z,-3.90
2022-12-15T07:56:26.346Z,-3.77
2022-12-15T07:59:17.331Z,-3.65
2022-12-15T08:02:11.296Z,-3.52
2022-12-15T08:05:05.365Z,-3.49
2022-12-15T08:08:09.623Z,-3.69
2022-12-15T08:11:12.599Z,-3.70
2022-12-15T08:14:03.168Z,-3.81
2022-12-15T08:16:52.886Z,-3.84
2022-12-15T08:19:43.759Z,-3.72
2022-12-15T08:22:32.227Z,-3.85
2022-12-15T08:25:37.267Z,-3.88
2022-12-15T08:28:25.495Z,-3.88
2022-12-15T08:31:19.149Z,-3.53
2022-12-15T08:34:12.798Z,-3.71
2022-12-15T08:37:03.741Z,-3.56
2022-12-15T08:40:04.725Z,-3.52
2022-12-15T08:42:53.373Z,-3.31
2022-12-15T08:45:49.427Z,-3.46
2022-12-15T08:48:41.455Z,-3.83
2022-12-15T08:51:32.282Z,-3.58
2022-12-15T08:54:25.420Z,-3.52
2022-12-15T08:57:16.786Z,-3.42
2022-12-15T09:00:06.208Z,-3.65
2022-12-15T09:03:17.672Z,-3.46
2022-12-15T09:06:11.856Z,-3.33
2022-12-15T09:09:32.795Z,-3.12
2022-12-15T09:12:24.490Z,-3.56
2022-12-15T09:15:16.861Z,-3.43
2022-12-15T09:18:08.968Z,-3.40
2022-12-15T09:21:06.401Z,-3.27
2022-12-15T09:24:03.173Z,-3.61
2022-12-15T09:27:10.519Z,-3.71
2022-12-15T09:30:20.837Z,-3.74
2022-12-15T09:33:12.211Z,-3.78
2022-12-15T09:36:21.448Z,-3.22
2022-12-15T09:39:30.450Z,-3.03
2022-12-15T09:47:03.989Z,-2.74
2022-12-15T09:50:32.726Z,-2.53
2022-12-15T09:54:15.294Z,-2.54
2022-12-15T09:57:48.732Z,-2.61
2022-12-15T10:02:13.196Z,-2.18
2022-12-15T10:09:37.413Z,-2.51
2022-12-15T10:12:41.969Z,-2.68
2022-12-15T10:20:00.065Z,-2.16
2022-12-15T10:23:17.980Z,-2.24
2022-12-15T10:26:27.549Z,-2.36
2022-12-15T10:30:01.876Z,-2.63
2022-12-15T10:34:46.864Z,-2.44
2022-12-15T10:36:23.751Z,-2.27
2022-12-15T10:39:28.805Z,-1.95
2022-12-15T10:42:31.286Z,-1.76
2022-12-15T10:49:17.880Z,-2.80
2022-12-15T10:52:14.513Z,-2.41
2022-12-15T10:55:41.425Z,-2.46
2022-12-15T10:58:39.800Z,-2.57
2022-12-15T11:01:46.265Z,-2.77
2022-12-15T11:04:58.113Z,-3.37
2022-12-15T11:08:12.313Z,-3.32
2022-12-15T11:11:25.959Z,-3.47
2022-12-15T11:14:38.320Z,-3.89
2022-12-15T11:17:39.837Z,-3.36
2022-12-15T11:26:41.003Z,-2.33
2022-12-15T11:30:29.559Z,-2.35
2022-12-15T11:33:19.864Z,-1.73
2022-12-15T11:36:28.843Z,-1.90
2022-12-15T11:39:30.884Z,-2.11
2022-12-15T11:42:52.974Z,-1.88
2022-12-15T11:46:13.858Z,-1.62
2022-12-15T11:49:29.431Z,-1.83
2022-12-15T11:53:12.446Z,-1.99
2022-12-15T11:56:31.047Z,-1.86
2022-12-15T11:59:50.025Z,-1.67
2022-12-15T12:03:24.874Z,-1.48
2022-12-15T12:06:35.835Z,-1.77
2022-12-15T12:10:01.525Z,-2.02
2022-12-15T12:13:45.812Z,-1.98
2022-12-15T12:17:06.578Z,-2.05
2022-12-15T12:20:40.644Z,-2.04
2022-12-15T12:24:18.373Z,-1.64
2022-12-15T12:27:59.084Z,-1.73
2022-12-15T12:37:40.283Z,-1.87
2022-12-15T12:40:52.648Z,-1.64
2022-12-15T12:43:58.885Z,-1.60
2022-12-15T12:46:59.336Z,-2.24
2022-12-15T12:57:55.604Z,-1.75
2022-12-15T13:01:44.960Z,-1.43
2022-12-15T13:05:21.524Z,-0.77
2022-12-15T13:12:27.575Z,-1.63
2022-12-15T13:15:37.218Z,-0.78
2022-12-15T13:18:42.222Z,-0.39
2022-12-15T13:21:42.663Z,-0.36
2022-12-15T13:24:39.574Z,-0.15
2022-12-15T13:28:05.329Z,0.52
2022-12-15T13:31:53.065Z,1.30
2022-12-15T13:35:01.869Z,1.52
2022-12-15T13:38:19.607Z,0.82
2022-12-15T13:42:23.678Z,-0.04
2022-12-15T13:45:28.674Z,-0.36
2022-12-15T13:54:28.393Z,-1.02
2022-12-15T13:57:51.826Z,-1.06
2022-12-15T14:00:59.153Z,-1.13
2022-12-15T14:04:17.159Z,-1.54
2022-12-15T14:07:10.615Z,-2.00
2022-12-15T14:10:05.086Z,-1.40
2022-12-15T14:13:15.510Z,-1.20
2022-12-15T14:16:19.090Z,-1.74
2022-12-15T14:19:26.568Z,-2.07
2022-12-15T14:22:36.034Z,-2.56
2022-12-15T14:25:33.671Z,-2.95
2022-12-15T14:28:41.180Z,-3.39
2022-12-15T14:31:37.707Z,-3.64
2022-12-15T14:35:00.222Z,-3.57
2022-12-15T14:37:48.656Z,-3.78
2022-12-15T14:40:40.067Z,-3.79
2022-12-15T14:43:37.257Z,-3.79
2022-12-15T14:46:27.814Z,-3.85
2022-12-15T14:49:37.346Z,-4.02
2022-12-15T14:52:41.683Z,-4.11
2022-12-15T14:55:39.627Z,-4.15
2022-12-15T14:58:38.639Z,-4.24
2022-12-15T15:01:45.423Z,-4.15
2022-12-15T15:04:41.648Z,-4.34
2022-12-15T15:07:36.149Z,-4.38
2022-12-15T15:10:39.788Z,-4.25
2022-12-15T15:13:41.616Z,-4.48
2022-12-15T15:16:53.231Z,-4.35
2022-12-15T15:20:26.948Z,-4.35
2022-12-15T15:26:03.313Z,-4.48
2022-12-15T15:29:34.232Z,-4.66
2022-12-15T15:32:25.847Z,-4.56
2022-12-15T15:35:21.859Z,-4.47
2022-12-15T15:38:38.845Z,-4.64
2022-12-15T15:41:46.187Z,-4.57
2022-12-15T15:44:34.327Z,-4.52
2022-12-15T15:47:30.678Z,-4.66
2022-12-15T15:50:27.239Z,-4.70
2022-12-15T15:53:23.366Z,-4.69
2022-12-15T15:56:32.253Z,-4.88
2022-12-15T15:59:33.210Z,-4.86
2022-12-15T16:02:38.894Z,-4.79
2022-12-15T16:05:35.739Z,-4.86
2022-12-15T16:08:35.249Z,-4.87
2022-12-15T16:11:55.612Z,-4.81
2022-12-15T16:14:58.678Z,-4.97
2022-12-15T16:18:27.581Z,-4.77
2022-12-15T16:21:26.520Z,-5.05
2022-12-15T16:24:40.943Z,-4.94
2022-12-15T16:27:29.600Z,-4.83
2022-12-15T16:30:50.707Z,-5.08
2022-12-15T16:33:52.104Z,-5.12
2022-12-15T16:36:45.641Z,-5.20
2022-12-15T16:39:44.431Z,-5.31
2022-12-15T16:42:35.180Z,-5.36
2022-12-15T16:45:28.820Z,-5.25
2022-12-15T16:48:22.232Z,-5.27
2022-12-15T16:51:34.952Z,-5.36
2022-12-15T16:54:36.436Z,-5.17
2022-12-15T16:57:44.625Z,-5.34
2022-12-15T17:00:35.732Z,-5.20
2022-12-15T17:03:30.697Z,-5.28
2022-12-15T17:06:29.555Z,-5.38
2022-12-15T17:09:24.208Z,-5.38
2022-12-15T17:12:18.289Z,-5.49
2022-12-15T17:15:25.441Z,-5.46
2022-12-15T17:18:15.015Z,-5.48
2022-12-15T17:21:12.637Z,-5.50
2022-12-15T17:24:08.305Z,-5.38
2022-12-15T17:26:56.438Z,-5.37
2022-12-15T17:29:44.770Z,-5.31
2022-12-15T17:32:32.628Z,-5.35
2022-12-15T17:35:21.536Z,-5.46
2022-12-15T17:38:18.347Z,-5.58
2022-12-15T17:41:15.519Z,-5.58
2022-12-15T17:44:36.263Z,-5.73
2022-12-15T17:47:25.581Z,-5.79
2022-12-15T17:50:23.370Z,-5.63
2022-12-15T17:53:13.781Z,-5.76
2022-12-15T17:56:04.656Z,-5.82
2022-12-15T17:58:58.151Z,-5.91
2022-12-15T18:02:00.293Z,-5.81
2022-12-15T18:05:00.211Z,-5.70
2022-12-15T18:07:58.381Z,-5.82
2022-12-15T18:10:49.292Z,-5.83
2022-12-15T18:13:49.283Z,-5.82
2022-12-15T18:16:39.533Z,-5.78
2022-12-15T18:19:35.134Z,-5.88
2022-12-15T18:22:27.851Z,-5.89
2022-12-15T18:25:31.611Z,-5.92
2022-12-15T18:28:37.583Z,-5.87
2022-12-15T18:31:30.451Z,-5.84
2022-12-15T18:34:24.162Z,-5.88
2022-12-15T18:37:32.303Z,-5.89
2022-12-15T18:40:25.315Z,-5.79
2022-12-15T18:43:22.684Z,-5.93
2022-12-15T18:46:16.320Z,-5.86
2022-12-15T18:49:12.243Z,-5.99
2022-12-15T18:52:00.116Z,-6.03
2022-12-15T18:54:49.904Z,-6.21
2022-12-15T18:57:38.022Z,-6.19
2022-12-15T19:00:28.779Z,-6.22
2022-12-15T19:03:20.116Z,-6.16
2022-12-15T19:06:26.065Z,-6.22
2022-12-15T19:09:23.268Z,-6.06
2022-12-15T19:12:18.286Z,-6.10
2022-12-15T19:15:21.261Z,-5.91
2022-12-15T19:18:34.489Z,-5.98
2022-12-15T19:21:44.393Z,-6.08
2022-12-15T19:24:51.229Z,-6.16
2022-12-15T19:27:39.235Z,-6.04
2022-12-15T19:30:38.620Z,-6.17
2022-12-15T19:33:30.060Z,-6.11
2022-12-15T19:36:23.683Z,-6.27
2022-12-15T19:39:22.471Z,-6.22
2022-12-15T19:42:30.003Z,-6.19
2022-12-15T19:45:23.457Z,-6.05
2022-12-15T19:48:18.698Z,-6.10
2022-12-15T19:51:19.821Z,-6.16
2022-12-15T19:54:17.766Z,-6.19
2022-12-15T20:01:45.550Z,-6.48
2022-12-15T20:04:34.449Z,-6.34
2022-12-15T20:07:32.221Z,-6.44
2022-12-15T20:10:32.514Z,-6.22
2022-12-15T20:13:29.730Z,-6.39
2022-12-15T20:16:19.617Z,-6.27
2022-12-15T20:19:12.154Z,-6.36
2022-12-15T20:22:17.135Z,-6.31
2022-12-15T20:25:09.040Z,-6.24
2022-12-15T20:28:00.824Z,-6.43
2022-12-15T20:30:50.644Z,-6.39
2022-12-15T20:33:39.261Z,-6.44
2022-12-15T20:36:50.497Z,-6.44
2022-12-15T20:39:40.278Z,-6.49
2022-12-15T20:42:45.337Z,-6.16
2022-12-15T20:45:57.849Z,-6.03
2022-12-15T20:48:48.762Z,-6.00
2022-12-15T20:51:39.710Z,-5.93
2022-12-15T20:54:36.899Z,-6.15
2022-12-15T20:57:25.764Z,-6.00
2022-12-15T21:03:50.439Z,-6.06
2022-12-15T21:06:54.627Z,-6.14
2022-12-15T21:10:10.528Z,-6.05
2022-12-15T21:13:10.459Z,-6.09
2022-12-15T21:15:58.564Z,-6.03
2022-12-15T21:19:22.296Z,-6.09
2022-12-15T21:22:36.033Z,-6.18
2022-12-15T21:25:38.002Z,-6.11
2022-12-15T21:32:58.023Z,-6.15
2022-12-15T21:35:52.034Z,-6.12
2022-12-15T21:38:56.633Z,-5.80
2022-12-15T21:41:51.196Z,-5.74
2022-12-15T21:44:39.936Z,-5.70
2022-12-15T21:47:52.280Z,-5.58
2022-12-15T21:50:47.788Z,-5.78
2022-12-15T21:53:35.943Z,-5.56
2022-12-15T21:56:38.804Z,-5.32
2022-12-15T21:59:33.542Z,-5.27
2022-12-15T22:02:27.841Z,-5.15
2022-12-15T22:05:33.363Z,-5.23
2022-12-15T22:08:57.064Z,-5.27
2022-12-15T22:11:57.122Z,-5.19
2022-12-15T22:14:48.446Z,-5.25
2022-12-15T22:18:28.151Z,-5.32
2022-12-15T22:25:02.682Z,-5.17
2022-12-15T22:28:00.870Z,-5.22
2022-12-15T22:30:58.453Z,-5.45
2022-12-15T22:33:46.747Z,-5.52
2022-12-15T22:36:36.013Z,-5.46
2022-12-15T22:39:25.314Z,-5.52
2022-12-15T22:42:19.772Z,-5.41
2022-12-15T22:45:20.748Z,-5.48
2022-12-15T22:48:19.710Z,-5.56
2022-12-15T22:51:08.466Z,-5.45
2022-12-15T22:53:58.098Z,-5.48
2022-12-15T22:57:10.754Z,-5.52
2022-12-15T23:00:23.258Z,-5.37
2022-12-15T23:03:14.353Z,-5.41
2022-12-15T23:06:03.585Z,-5.34
2022-12-15T23:08:55.926Z,-5.41
2022-12-15T23:11:44.778Z,-5.41
2022-12-15T23:14:51.146Z,-5.63
2022-12-15T23:17:40.099Z,-5.36
2022-12-15T23:20:28.617Z,-5.48
2022-12-15T23:23:17.527Z,-5.30
2022-12-15T23:26:08.410Z,-5.61
2022-12-15T23:28:56.635Z,-5.67
2022-12-15T23:31:50.599Z,-5.66
2022-12-15T23:34:45.856Z,-5.76
2022-12-15T23:37:35.414Z,-5.66
2022-12-15T23:40:23.416Z,-5.69
2022-12-15T23:43:17.506Z,-5.53
2022-12-15T23:46:13.256Z,-5.64
2022-12-15T23:49:02.102Z,-5.69
2022-12-15T23:52:01.324Z,-5.88
2022-12-15T23:54:55.331Z,-5.76
2022-12-15T23:57:48.092Z,-5.81
